createdAt,value
2023-04-03T00:00:37.089Z,4.40
2023-04-03T00:03:04.096Z,4.22
2023-04-03T00:05:30.930Z,3.75
2023-04-03T00:07:57.613Z,5.00
2023-04-03T00:10:24.296Z,4.70
2023-04-03T00:12:50.999Z,4.53
2023-04-03T00:15:17.809Z,4.47
2023-04-03T00:17:44.558Z,4.35
2023-04-03T00:20:11.346Z,4.27
2023-04-03T00:22:38.072Z,4.30
2023-04-03T00:25:05.695Z,4.50
2023-04-03T00:27:32.392Z,4.90
2023-04-03T00:29:59.098Z,4.10
2023-04-03T00:32:25.797Z,5.05
2023-04-03T00:34:52.521Z,4.70
2023-04-03T00:37:19.268Z,4.60
2023-04-03T00:39:46.471Z,5.30
2023-04-03T00:42:13.269Z,4.47
2023-04-03T00:44:39.852Z,4.80
2023-04-03T00:47:09.545Z,4.45
2023-04-03T00:49:37.976Z,4.50
2023-04-03T00:52:07.485Z,4.80
2023-04-03T00:54:37.150Z,4.97
2023-04-03T00:57:06.477Z,4.75
2023-04-03T00:59:37.167Z,4.60
2023-04-03T01:02:04.045Z,4.40
2023-04-03T01:04:40.762Z,4.60
2023-04-03T01:07:19.083Z,4.20
2023-04-03T01:09:48.058Z,4.82
2023-04-03T01:12:22.154Z,4.90
2023-04-03T01:14:55.628Z,4.13
2023-04-03T01:17:32.926Z,4.80
2023-04-03T01:20:33.924Z,4.57
2023-04-03T01:23:13.101Z,4.53
2023-04-03T01:25:46.323Z,4.30
2023-04-03T01:28:22.425Z,4.57
2023-04-03T01:31:00.645Z,4.88
2023-04-03T01:33:27.854Z,4.63
2023-04-03T01:35:54.617Z,4.40
2023-04-03T01:38:21.888Z,4.37
2023-04-03T01:40:48.537Z,4.50
2023-04-03T01:43:16.062Z,3.90
2023-04-03T01:45:42.835Z,4.35
2023-04-03T01:48:10.593Z,3.60
2023-04-03T01:50:37.805Z,4.00
2023-04-03T01:53:04.984Z,4.03
2023-04-03T01:55:31.748Z,4.47
2023-04-03T01:57:58.549Z,4.55
2023-04-03T02:00:25.463Z,4.80
2023-04-03T02:02:52.124Z,4.20
2023-04-03T02:05:19.381Z,4.43
2023-04-03T02:07:46.716Z,4.20
2023-04-03T02:10:14.512Z,3.67
2023-04-03T02:12:42.314Z,4.78
2023-04-03T02:15:09.420Z,4.10
2023-04-03T02:17:36.513Z,4.75
2023-04-03T02:20:04.866Z,4.17
2023-04-03T02:22:33.428Z,4.25
2023-04-03T02:25:00.475Z,4.50
2023-04-03T02:27:27.381Z,4.60
2023-04-03T02:29:54.200Z,5.13
2023-04-03T02:32:20.953Z,4.70
2023-04-03T02:34:48.118Z,4.65
2023-04-03T02:37:15.745Z,4.68
2023-04-03T02:39:44.941Z,3.90
2023-04-03T02:42:11.727Z,4.65
2023-04-03T02:44:39.751Z,5.65
2023-04-03T02:47:06.555Z,5.05
2023-04-03T02:49:33.689Z,4.38
2023-04-03T02:52:00.615Z,3.72
2023-04-03T02:54:29.581Z,3.47
2023-04-03T02:57:00.231Z,3.58
2023-04-03T02:59:26.893Z,3.28
2023-04-03T03:01:54.080Z,4.07
2023-04-03T03:04:20.804Z,4.00
2023-04-03T03:06:47.730Z,3.33
2023-04-03T03:09:14.850Z,2.95
2023-04-03T03:11:43.517Z,2.72
2023-04-03T03:14:10.229Z,2.85
2023-04-03T03:16:36.879Z,3.15
2023-04-03T03:19:04.067Z,3.10
2023-04-03T03:21:30.993Z,3.05
2023-04-03T03:23:57.636Z,3.83
2023-04-03T03:26:24.619Z,3.50
2023-04-03T03:28:51.273Z,4.20
2023-04-03T03:31:18.242Z,3.70
2023-04-03T03:33:45.181Z,3.90
2023-04-03T03:36:11.928Z,3.17
2023-04-03T03:38:38.822Z,3.40
2023-04-03T03:41:05.924Z,2.67
2023-04-03T03:43:34.151Z,3.05
2023-04-03T03:46:00.990Z,2.80
2023-04-03T03:48:28.498Z,2.70
2023-04-03T03:50:55.151Z,2.55
2023-04-03T03:53:25.606Z,3.00
2023-04-03T03:55:56.031Z,3.78
2023-04-03T03:58:25.762Z,2.60
2023-04-03T04:00:53.381Z,3.05
2023-04-03T04:03:20.365Z,3.05
2023-04-03T04:05:48.735Z,2.95
2023-04-03T04:08:16.095Z,2.75
2023-04-03T04:10:44.632Z,2.50
2023-04-03T04:13:13.302Z,2.72
2023-04-03T04:15:40.586Z,2.72
2023-04-03T04:18:07.648Z,2.70
2023-04-03T04:20:34.619Z,3.05
2023-04-03T04:23:01.538Z,2.60
2023-04-03T04:25:29.378Z,2.72
2023-04-03T04:27:56.218Z,2.10
2023-04-03T04:30:22.880Z,2.75
2023-04-03T04:32:51.126Z,3.20
2023-04-03T04:35:18.350Z,3.22
2023-04-03T04:37:47.998Z,2.60
2023-04-03T04:40:15.564Z,2.63
2023-04-03T04:42:42.260Z,2.72
2023-04-03T04:45:09.270Z,2.33
2023-04-03T04:47:37.563Z,2.83
2023-04-03T04:50:05.727Z,2.53
2023-04-03T04:52:33.114Z,2.50
2023-04-03T04:55:00.642Z,2.40
2023-04-03T04:57:27.576Z,2.80
2023-04-03T04:59:57.006Z,2.92
2023-04-03T05:02:23.761Z,2.70
2023-04-03T05:04:51.856Z,2.30
2023-04-03T05:07:22.255Z,2.60
2023-04-03T05:09:49.175Z,2.67
2023-04-03T05:12:17.933Z,3.33
2023-04-03T05:14:51.670Z,3.08
2023-04-03T05:17:18.835Z,2.95
2023-04-03T05:19:50.663Z,2.92
2023-04-03T05:22:21.349Z,2.92
2023-04-03T05:24:48.628Z,2.80
2023-04-03T05:27:16.075Z,3.80
2023-04-03T05:29:46.262Z,3.53
2023-04-03T05:32:17.766Z,2.63
2023-04-03T05:34:47.611Z,3.05
2023-04-03T05:37:14.279Z,2.40
2023-04-03T05:39:42.146Z,2.60
2023-04-03T05:42:10.308Z,2.45
2023-04-03T05:44:37.144Z,2.50
2023-04-03T05:47:05.615Z,2.40
2023-04-03T05:49:32.341Z,3.05
2023-04-03T05:51:58.980Z,2.80
2023-04-03T05:54:30.941Z,2.47
2023-04-03T05:57:24.647Z,2.40
2023-04-03T05:59:51.673Z,2.95
2023-04-03T06:02:22.703Z,2.83
2023-04-03T06:04:50.527Z,2.03
2023-04-03T06:07:21.952Z,3.08
2023-04-03T06:09:52.057Z,1.95
2023-04-03T06:12:19.886Z,2.23
2023-04-03T06:14:46.802Z,2.33
2023-04-03T06:17:16.208Z,1.55
2023-04-03T06:19:43.180Z,2.80
2023-04-03T06:22:10.178Z,2.43
2023-04-03T06:24:36.893Z,1.80
2023-04-03T06:27:04.232Z,2.03
2023-04-03T06:29:31.114Z,2.10
2023-04-03T06:31:58.104Z,1.57
2023-04-03T06:34:24.756Z,2.57
2023-04-03T06:36:51.597Z,2.17
2023-04-03T06:39:22.535Z,2.27
2023-04-03T06:41:51.001Z,2.20
2023-04-03T06:44:18.849Z,2.37
2023-04-03T06:46:47.437Z,2.30
2023-04-03T06:49:14.191Z,2.00
2023-04-03T06:51:41.311Z,1.73
2023-04-03T06:54:09.150Z,2.13
2023-04-03T06:56:36.609Z,2.50
2023-04-03T06:59:03.977Z,1.97
2023-04-03T07:01:31.093Z,2.13
2023-04-03T07:03:59.249Z,1.80
2023-04-03T07:06:27.990Z,1.90
2023-04-03T07:08:55.768Z,1.47
2023-04-03T07:11:23.273Z,1.70
2023-04-03T07:13:50.709Z,1.67
2023-04-03T07:16:17.531Z,1.60
2023-04-03T07:18:44.393Z,1.73
2023-04-03T07:21:11.406Z,2.10
2023-04-03T07:23:38.361Z,1.53
2023-04-03T07:26:05.161Z,2.37
2023-04-03T07:28:31.817Z,2.17
2023-04-03T07:31:09.024Z,2.03
2023-04-03T07:33:37.948Z,2.17
2023-04-03T07:36:07.753Z,2.90
2023-04-03T07:38:36.290Z,1.20
2023-04-03T07:41:04.418Z,2.00
2023-04-03T07:43:31.136Z,1.10
2023-04-03T07:45:57.959Z,1.60
2023-04-03T07:48:26.430Z,1.40
2023-04-03T07:50:53.469Z,1.40
2023-04-03T07:53:20.643Z,1.60
2023-04-03T07:55:48.194Z,1.47
2023-04-03T07:58:17.262Z,1.37
2023-04-03T08:00:44.076Z,1.60
2023-04-03T08:03:12.688Z,1.70
2023-04-03T08:05:43.865Z,1.60
2023-04-03T08:08:12.833Z,1.40
2023-04-03T08:10:39.693Z,1.20
2023-04-03T08:13:06.697Z,1.60
2023-04-03T08:15:33.404Z,1.40
2023-04-03T08:18:01.718Z,1.40
2023-04-03T08:20:28.913Z,1.43
2023-04-03T08:22:55.961Z,1.23
2023-04-03T08:25:23.123Z,1.30
2023-04-03T08:27:49.820Z,1.07
2023-04-03T08:30:16.848Z,0.60
2023-04-03T08:32:44.935Z,0.97
2023-04-03T08:35:11.866Z,0.67
2023-04-03T08:37:39.930Z,0.50
2023-04-03T08:40:12.507Z,0.83
2023-04-03T08:42:57.715Z,1.07
2023-04-03T08:45:36.755Z,0.50
2023-04-03T08:48:08.232Z,0.60
2023-04-03T08:50:40.362Z,0.50
2023-04-03T08:53:12.014Z,0.60
2023-04-03T08:55:43.582Z,0.90
2023-04-03T08:58:21.129Z,1.10
2023-04-03T09:01:11.467Z,0.73
2023-04-03T09:03:41.859Z,0.90
2023-04-03T09:06:21.351Z,1.00
2023-04-03T09:09:05.093Z,0.40
2023-04-03T09:11:44.483Z,1.27
2023-04-03T09:14:25.027Z,0.70
2023-04-03T09:17:01.315Z,1.00
2023-04-03T09:19:39.675Z,0.90
2023-04-03T09:22:26.429Z,0.90
2023-04-03T09:25:05.328Z,0.67
2023-04-03T09:27:32.062Z,1.10
2023-04-03T09:29:59.237Z,0.83
2023-04-03T09:32:35.764Z,2.40
2023-04-03T09:35:19.048Z,1.03
2023-04-03T09:37:52.419Z,1.10
2023-04-03T09:40:29.812Z,1.17
2023-04-03T09:43:01.499Z,0.90
2023-04-03T09:45:33.125Z,0.80
2023-04-03T09:48:15.293Z,1.07
2023-04-03T09:50:56.205Z,0.93
2023-04-03T09:53:32.795Z,1.20
2023-04-03T09:56:01.498Z,1.17
2023-04-03T09:58:46.977Z,1.03
2023-04-03T10:01:22.580Z,0.80
2023-04-03T10:04:03.428Z,1.20
2023-04-03T10:06:34.040Z,0.80
2023-04-03T10:09:05.351Z,0.70
2023-04-03T10:11:32.324Z,1.10
2023-04-03T10:14:01.718Z,0.90
2023-04-03T10:16:38.787Z,1.00
2023-04-03T10:19:12.912Z,1.00
2023-04-03T10:21:53.935Z,1.10
2023-04-03T10:24:31.052Z,0.97
2023-04-03T10:27:22.380Z,0.90
2023-04-03T10:30:20.216Z,0.70
2023-04-03T10:33:06.463Z,1.37
2023-04-03T10:35:41.834Z,0.60
2023-04-03T10:38:33.743Z,0.80
2023-04-03T10:41:14.057Z,0.90
2023-04-03T10:43:44.004Z,0.70
2023-04-03T10:46:36.239Z,0.67
2023-04-03T10:49:36.170Z,0.70
2023-04-03T10:52:07.217Z,0.80
2023-04-03T10:54:44.988Z,0.50
2023-04-03T10:57:14.045Z,0.60
2023-04-03T10:59:52.402Z,0.80
2023-04-03T11:02:29.386Z,0.80
2023-04-03T11:05:03.543Z,0.53
2023-04-03T11:07:41.815Z,0.60
2023-04-03T11:10:31.459Z,0.93
2023-04-03T11:13:07.788Z,0.40
2023-04-03T11:15:34.565Z,0.60
2023-04-03T11:18:13.447Z,0.43
2023-04-03T11:20:45.469Z,0.93
2023-04-03T11:23:35.605Z,0.60
2023-04-03T11:26:16.712Z,0.50
2023-04-03T11:28:43.563Z,0.53
2023-04-03T11:31:36.751Z,0.60
2023-04-03T11:34:37.224Z,0.50
2023-04-03T11:37:12.719Z,0.60
2023-04-03T11:39:40.681Z,0.60
2023-04-03T11:42:35.480Z,0.57
2023-04-03T11:45:25.586Z,0.47
2023-04-03T11:48:07.145Z,0.90
2023-04-03T11:50:42.570Z,0.60
2023-04-03T11:53:09.406Z,1.27
2023-04-03T11:55:36.822Z,0.87
2023-04-03T11:58:12.831Z,1.20
2023-04-03T12:00:51.428Z,0.60
2023-04-03T12:03:24.978Z,0.90
2023-04-03T12:06:07.880Z,0.80
2023-04-03T12:08:34.554Z,0.63
2023-04-03T12:11:13.229Z,1.00
2023-04-03T12:14:06.912Z,0.83
2023-04-03T12:16:38.257Z,0.80
2023-04-03T12:19:41.943Z,0.60
2023-04-03T12:22:11.957Z,0.50
2023-04-03T12:24:41.377Z,0.60
2023-04-03T12:27:35.698Z,0.60
2023-04-03T12:30:19.572Z,0.80
2023-04-03T12:33:12.673Z,0.70
2023-04-03T12:35:49.350Z,0.60
2023-04-03T12:38:31.301Z,0.73
2023-04-03T12:41:12.682Z,0.50
2023-04-03T12:44:01.375Z,1.10
2023-04-03T12:47:00.512Z,0.63
2023-04-03T12:49:29.960Z,0.57
2023-04-03T12:51:56.902Z,0.87
2023-04-03T12:54:40.748Z,0.80
2023-04-03T12:57:19.036Z,0.90
2023-04-03T12:59:47.955Z,1.43
2023-04-03T13:02:32.599Z,0.60
2023-04-03T13:05:08.327Z,0.73
2023-04-03T13:07:39.589Z,1.10
2023-04-03T13:10:09.393Z,0.77
2023-04-03T13:12:47.084Z,0.90
2023-04-03T13:15:18.776Z,1.20
2023-04-03T13:17:45.583Z,1.20
2023-04-03T13:20:36.786Z,0.90
2023-04-03T13:23:09.127Z,1.33
2023-04-03T13:25:41.547Z,1.17
2023-04-03T13:28:14.206Z,0.80
2023-04-03T13:30:56.882Z,0.63
2023-04-03T13:33:27.638Z,0.60
2023-04-03T13:36:31.231Z,0.80
2023-04-03T13:39:08.414Z,1.00
2023-04-03T13:41:41.596Z,0.80
2023-04-03T13:44:23.510Z,1.10
2023-04-03T13:46:52.561Z,0.80
2023-04-03T13:49:41.130Z,1.10
2023-04-03T13:52:28.622Z,1.17
2023-04-03T13:55:01.412Z,1.00
2023-04-03T13:57:29.448Z,0.80
2023-04-03T13:59:56.258Z,1.20
2023-04-03T14:02:31.906Z,0.93
2023-04-03T14:05:02.220Z,0.70
2023-04-03T14:07:31.855Z,0.70
2023-04-03T14:09:58.732Z,1.13
2023-04-03T14:12:33.951Z,0.60
2023-04-03T14:15:18.071Z,0.87
2023-04-03T14:17:45.015Z,1.00
2023-04-03T14:20:17.269Z,1.00
2023-04-03T14:22:44.998Z,1.13
2023-04-03T14:25:12.001Z,0.70
2023-04-03T14:27:44.114Z,0.80
2023-04-03T14:30:18.395Z,1.30
2023-04-03T14:32:45.845Z,1.03
2023-04-03T14:35:12.597Z,1.20
2023-04-03T14:37:39.333Z,1.13
2023-04-03T14:40:09.048Z,1.53
2023-04-03T14:42:38.360Z,1.03
2023-04-03T14:45:09.056Z,0.80
2023-04-03T14:47:41.923Z,1.10
2023-04-03T14:50:14.038Z,0.90
2023-04-03T14:52:41.285Z,0.97
2023-04-03T14:55:09.753Z,1.40
2023-04-03T14:57:39.004Z,1.40
2023-04-03T15:00:07.991Z,1.30
2023-04-03T15:02:40.023Z,1.17
2023-04-03T15:05:10.392Z,1.10
2023-04-03T15:07:47.543Z,1.00
2023-04-03T15:10:19.511Z,1.20
2023-04-03T15:12:47.133Z,1.23
2023-04-03T15:15:15.768Z,1.23
2023-04-03T15:17:43.479Z,1.10
2023-04-03T15:20:20.343Z,1.70
2023-04-03T15:22:47.482Z,1.00
2023-04-03T15:25:14.408Z,1.40
2023-04-03T15:27:41.411Z,0.97
2023-04-03T15:30:13.916Z,1.00
2023-04-03T15:32:40.897Z,0.70
2023-04-03T15:35:07.975Z,1.20
2023-04-03T15:37:34.649Z,1.23
2023-04-03T15:40:01.882Z,0.70
2023-04-03T15:42:29.141Z,1.70
2023-04-03T15:44:55.993Z,1.20
2023-04-03T15:47:23.278Z,3.03
2023-04-03T15:49:50.381Z,1.27
2023-04-03T15:52:17.046Z,1.13
2023-04-03T15:54:43.689Z,1.53
2023-04-03T15:57:10.511Z,1.40
2023-04-03T15:59:37.162Z,1.07
2023-04-03T16:02:06.282Z,2.03
2023-04-03T16:04:34.947Z,1.30
2023-04-03T16:07:05.291Z,0.97
2023-04-03T16:09:34.505Z,2.40
2023-04-03T16:12:01.436Z,0.83
2023-04-03T16:14:28.958Z,1.23
2023-04-03T16:16:56.514Z,1.17
2023-04-03T16:19:25.197Z,1.13
2023-04-03T16:21:54.955Z,0.83
2023-04-03T16:24:21.717Z,0.90
2023-04-03T16:26:48.396Z,0.80
2023-04-03T16:29:15.191Z,1.63
2023-04-03T16:31:42.121Z,1.20
2023-04-03T16:34:08.852Z,1.20
2023-04-03T16:36:35.869Z,1.13
2023-04-03T16:39:03.181Z,1.57
2023-04-03T16:41:29.807Z,1.70
2023-04-03T16:43:56.454Z,0.77
2023-04-03T16:46:23.113Z,1.10
2023-04-03T16:48:49.860Z,0.83
2023-04-03T16:51:17.701Z,1.20
2023-04-03T16:53:44.447Z,1.40
2023-04-03T16:56:11.535Z,1.17
2023-04-03T16:58:38.139Z,1.57
2023-04-03T17:01:16.634Z,2.17
2023-04-03T17:03:43.421Z,1.90
2023-04-03T17:06:16.940Z,1.20
2023-04-03T17:08:45.484Z,0.97
2023-04-03T17:11:26.962Z,0.80
2023-04-03T17:13:53.578Z,1.20
2023-04-03T17:16:20.505Z,1.67
2023-04-03T17:18:48.438Z,1.13
2023-04-03T17:21:15.766Z,1.30
2023-04-03T17:23:45.195Z,0.90
2023-04-03T17:26:11.840Z,0.80
2023-04-03T17:28:40.510Z,1.27
2023-04-03T17:31:07.305Z,1.23
2023-04-03T17:33:34.681Z,0.80
2023-04-03T17:36:04.170Z,0.80
2023-04-03T17:38:32.038Z,1.03
2023-04-03T17:41:00.325Z,1.37
2023-04-03T17:43:27.582Z,0.93
2023-04-03T17:46:03.607Z,0.97
2023-04-03T17:48:32.088Z,1.20
2023-04-03T17:50:59.590Z,1.33
2023-04-03T17:53:27.514Z,1.10
2023-04-03T17:55:54.200Z,1.30
2023-04-03T17:58:20.879Z,1.10
2023-04-03T18:00:47.668Z,0.90
2023-04-03T18:03:14.669Z,1.30
2023-04-03T18:05:41.700Z,1.00
2023-04-03T18:08:08.509Z,1.10
2023-04-03T18:10:38.457Z,1.57
2023-04-03T18:13:07.936Z,1.40
2023-04-03T18:15:34.705Z,1.53
2023-04-03T18:18:01.444Z,1.27
2023-04-03T18:20:28.453Z,2.07
2023-04-03T18:22:55.385Z,1.50
2023-04-03T18:25:21.998Z,1.77
2023-04-03T18:27:48.946Z,1.50
2023-04-03T18:30:17.848Z,3.77
2023-04-03T18:32:44.724Z,1.27
2023-04-03T18:35:11.722Z,1.67
2023-04-03T18:37:38.403Z,1.60
2023-04-03T18:40:05.825Z,1.33
2023-04-03T18:42:32.506Z,1.83
2023-04-03T18:45:02.397Z,1.40
2023-04-03T18:47:29.415Z,1.67
2023-04-03T18:49:56.758Z,1.00
2023-04-03T18:52:25.216Z,1.60
2023-04-03T18:54:52.036Z,1.57
2023-04-03T18:57:18.716Z,1.83
2023-04-03T18:59:45.514Z,1.47
2023-04-03T19:02:13.579Z,1.73
2023-04-03T19:04:40.520Z,1.63
2023-04-03T19:07:09.683Z,1.37
2023-04-03T19:09:38.601Z,1.27
2023-04-03T19:12:06.799Z,1.13
2023-04-03T19:14:34.087Z,1.47
2023-04-03T19:17:02.209Z,2.23
2023-04-03T19:19:29.310Z,1.20
2023-04-03T19:21:55.985Z,1.97
2023-04-03T19:24:22.648Z,1.80
2023-04-03T19:26:49.342Z,1.53
2023-04-03T19:29:16.042Z,1.73
2023-04-03T19:31:42.857Z,1.70
2023-04-03T19:34:09.770Z,1.90
2023-04-03T19:36:37.152Z,1.93
2023-04-03T19:39:04.957Z,1.97
2023-04-03T19:41:34.351Z,1.80
2023-04-03T19:44:01.372Z,2.60
2023-04-03T19:46:29.666Z,3.10
2023-04-03T19:48:56.896Z,1.90
2023-04-03T19:51:23.578Z,2.20
2023-04-03T19:53:50.722Z,2.30
2023-04-03T19:56:18.135Z,1.90
2023-04-03T19:58:45.413Z,1.77
2023-04-03T20:01:12.192Z,2.30
2023-04-03T20:03:39.562Z,2.93
2023-04-03T20:06:06.329Z,3.70
2023-04-03T20:08:33.046Z,2.90
2023-04-03T20:10:59.795Z,2.40
2023-04-03T20:13:26.420Z,2.23
2023-04-03T20:15:53.476Z,2.00
2023-04-03T20:18:21.249Z,1.63
2023-04-03T20:21:02.110Z,2.47
2023-04-03T20:23:29.746Z,2.20
2023-04-03T20:26:09.585Z,2.90
2023-04-03T20:28:42.357Z,2.57
2023-04-03T20:31:09.892Z,1.43
2023-04-03T20:33:37.464Z,1.97
2023-04-03T20:36:04.325Z,1.90
2023-04-03T20:38:31.129Z,2.30
2023-04-03T20:40:57.816Z,2.27
2023-04-03T20:43:25.260Z,2.97
2023-04-03T20:45:52.388Z,2.30
2023-04-03T20:48:19.121Z,2.20
2023-04-03T20:50:46.801Z,2.17
2023-04-03T20:53:14.652Z,1.80
2023-04-03T20:55:42.082Z,1.70
2023-04-03T20:58:08.813Z,1.33
2023-04-03T21:00:37.411Z,1.83
2023-04-03T21:03:04.332Z,2.10
2023-04-03T21:05:35.295Z,1.60
2023-04-03T21:08:39.901Z,1.60
2023-04-03T21:11:44.526Z,1.83
2023-04-03T21:14:49.078Z,1.30
2023-04-03T21:17:16.182Z,1.63
2023-04-03T21:19:46.376Z,1.23
2023-04-03T21:22:15.933Z,1.53
2023-04-03T21:24:44.292Z,2.10
2023-04-03T21:27:11.719Z,1.50
2023-04-03T21:29:38.622Z,1.70
2023-04-03T21:32:06.175Z,2.00
2023-04-03T21:34:33.094Z,1.90
2023-04-03T21:37:07.599Z,1.87
2023-04-03T21:39:34.330Z,1.90
2023-04-03T21:42:01.628Z,1.77
2023-04-03T21:44:28.606Z,1.77
2023-04-03T21:46:55.617Z,1.70
2023-04-03T21:49:23.833Z,2.10
2023-04-03T21:51:54.259Z,1.80
2023-04-03T21:54:21.055Z,1.97
2023-04-03T21:56:52.136Z,2.23
2023-04-03T21:59:19.083Z,2.37
2023-04-03T22:01:45.845Z,1.90
2023-04-03T22:04:12.633Z,1.50
2023-04-03T22:06:39.350Z,1.67
2023-04-03T22:09:06.514Z,1.77
2023-04-03T22:11:33.692Z,1.60
2023-04-03T22:14:00.835Z,1.67
2023-04-03T22:16:27.696Z,1.73
2023-04-03T22:18:54.805Z,2.20
2023-04-03T22:21:21.953Z,2.10
2023-04-03T22:23:48.558Z,1.40
2023-04-03T22:26:15.524Z,1.70
2023-04-03T22:28:44.765Z,1.53
2023-04-03T22:31:13.216Z,1.30
2023-04-03T22:33:41.274Z,2.10
2023-04-03T22:36:10.282Z,1.50
2023-04-03T22:38:37.792Z,1.50
2023-04-03T22:41:06.175Z,2.27
2023-04-03T22:43:35.147Z,1.90
2023-04-03T22:46:04.292Z,1.60
2023-04-03T22:48:31.645Z,1.97
2023-04-03T22:50:59.879Z,1.43
2023-04-03T22:53:27.532Z,1.40
2023-04-03T22:55:58.891Z,1.77
2023-04-03T22:58:26.440Z,1.70
2023-04-03T23:01:25.011Z,1.57
2023-04-03T23:03:52.230Z,1.40
2023-04-03T23:06:19.145Z,1.63
2023-04-03T23:08:46.289Z,1.70
2023-04-03T23:11:12.936Z,1.73
2023-04-03T23:13:39.690Z,2.05
2023-04-03T23:16:06.708Z,1.58
2023-04-03T23:18:33.614Z,2.05
2023-04-03T23:21:04.128Z,1.60
2023-04-03T23:23:31.877Z,1.83
2023-04-03T23:26:00.509Z,1.80
2023-04-03T23:28:28.184Z,2.15
2023-04-03T23:31:02.898Z,3.17
2023-04-03T23:33:30.995Z,2.75
2023-04-03T23:35:58.978Z,2.50
2023-04-03T23:38:25.952Z,3.00
2023-04-03T23:40:52.724Z,2.83
2023-04-03T23:43:19.338Z,2.20
2023-04-03T23:45:46.013Z,2.00
2023-04-03T23:48:13.039Z,1.80
2023-04-03T23:50:40.324Z,1.98
2023-04-03T23:53:07.296Z,3.60
2023-04-03T23:55:34.117Z,2.25
2023-04-03T23:58:00.741Z,1.80
